Archival Weather

Chicago O'Hare International

Chicago, Illinois (KORD)

Report from: Wednesday, December 21, 2022 1:51 AM CST
Current time: Friday, June 21, 2024 2:23 AM CDT

Current weather – Weather history – Daily summaries
Weather forecast

Temperature-9.4°C (15.1°F)
Wind chill-14.3°C (6.3°F)
Dew point-14.4°C (6.1°F)
Winds 5 kts (2.6 m/s, 5.8 mph) North-Northwest (330°)
Visibility10 mi. (16.1 km)
Clouds Few clouds 2,000 ft. (610 m)
Altimeter30.48 in.Hg (1032 mB)
Relative humidity67 %
Density altitude-3,693 ft. (-1,125 m)
Sea-level pressure103.3 kPa (1033 mB, 30.51 in.Hg)
Remarks Automated weather observing station with precipitation discriminator
Flight conditions Visual Meteorological Conditions
Raw dataKORD 210751Z 33005KT 10SM FEW020 M09/M14 A3048 RMK AO2 SLP332 T10941144
An error has occurred. This application may no longer respond until reloaded. Reload 🗙